createdAt,value
2022-08-01T00:01:32.598Z,94441.00
2022-08-01T00:04:00.639Z,94445.34
2022-08-01T00:06:29.876Z,94440.88
2022-08-01T00:08:58.166Z,94438.25
2022-08-01T00:11:26.243Z,94427.81
2022-08-01T00:13:54.668Z,94434.81
2022-08-01T00:16:23.689Z,94441.44
2022-08-01T00:18:53.346Z,94438.34
2022-08-01T00:21:21.530Z,94437.91
2022-08-01T00:23:49.852Z,94437.91
2022-08-01T00:26:17.895Z,94436.41
2022-08-01T00:28:45.864Z,94450.16
2022-08-01T00:31:13.887Z,94443.16
2022-08-01T00:33:41.838Z,94442.81
2022-08-01T00:36:11.268Z,94447.66
2022-08-01T00:38:39.732Z,94448.06
2022-08-01T00:41:07.770Z,94439.69
2022-08-01T00:43:35.750Z,94448.59
2022-08-01T00:46:03.781Z,94445.56
2022-08-01T00:48:31.819Z,94439.34
2022-08-01T00:51:00.009Z,94436.91
2022-08-01T00:53:51.428Z,94432.34
2022-08-01T00:56:17.499Z,94426.19
2022-08-01T00:58:45.803Z,94421.56
2022-08-01T01:01:14.100Z,94417.38
2022-08-01T01:03:58.523Z,94409.91
2022-08-01T01:06:46.815Z,94406.03
2022-08-01T01:09:26.049Z,94407.00
2022-08-01T01:12:09.802Z,94406.22
2022-08-01T01:14:45.789Z,94402.78
2022-08-01T01:17:17.127Z,94401.09
2022-08-01T01:20:01.760Z,94395.72
2022-08-01T01:22:48.378Z,94402.34
2022-08-01T01:25:37.799Z,94396.72
2022-08-01T01:28:12.364Z,94391.47
2022-08-01T01:30:45.049Z,94397.59
2022-08-01T01:33:15.936Z,94388.72
2022-08-01T01:35:49.636Z,94388.19
2022-08-01T01:38:22.089Z,94385.22
2022-08-01T01:40:52.622Z,94388.94
2022-08-01T01:43:22.560Z,94382.94
2022-08-01T01:45:59.224Z,94380.09
2022-08-01T01:48:28.777Z,94388.03
2022-08-01T01:50:57.749Z,94382.91
2022-08-01T01:53:27.247Z,94392.34
2022-08-01T01:55:57.848Z,94390.41
2022-08-01T01:58:28.470Z,94384.63
2022-08-01T02:01:02.823Z,94386.72
2022-08-01T02:03:32.567Z,94385.59
2022-08-01T02:06:03.794Z,94374.38
2022-08-01T02:08:33.157Z,94382.75
2022-08-01T02:11:21.839Z,94377.72
2022-08-01T02:13:55.880Z,94366.59
2022-08-01T02:16:28.340Z,94376.09
2022-08-01T02:18:57.056Z,94379.28
2022-08-01T02:21:29.825Z,94378.50
2022-08-01T02:24:05.991Z,94380.13
2022-08-01T02:26:35.858Z,94369.59
2022-08-01T02:29:09.674Z,94373.00
2022-08-01T02:31:46.025Z,94372.81
2022-08-01T02:34:18.973Z,94368.69
2022-08-01T02:36:48.703Z,94359.84
2022-08-01T02:39:19.783Z,94376.22
2022-08-01T02:41:52.186Z,94372.28
2022-08-01T02:44:26.070Z,94381.81
2022-08-01T02:47:03.248Z,94369.28
2022-08-01T02:49:35.106Z,94375.78
2022-08-01T02:52:06.070Z,94370.22
2022-08-01T02:54:35.544Z,94374.41
2022-08-01T02:57:06.658Z,94365.59
2022-08-01T02:59:38.378Z,94359.72
2022-08-01T03:02:11.935Z,94367.63
2022-08-01T03:04:42.740Z,94360.28
2022-08-01T03:07:12.981Z,94359.47
2022-08-01T03:09:44.468Z,94360.72
2022-08-01T03:12:16.583Z,94358.53
2022-08-01T03:14:46.410Z,94359.41
2022-08-01T03:17:18.766Z,94365.06
2022-08-01T03:19:48.600Z,94364.97
2022-08-01T03:22:18.485Z,94353.31
2022-08-01T03:24:51.074Z,94356.00
2022-08-01T03:27:21.262Z,94359.41
2022-08-01T03:29:50.302Z,94350.00
2022-08-01T03:32:21.774Z,94348.00
2022-08-01T03:34:50.177Z,94357.28
2022-08-01T03:37:26.330Z,94361.72
2022-08-01T03:39:59.690Z,94358.09
2022-08-01T03:42:34.146Z,94353.56
2022-08-01T03:45:13.290Z,94356.94
2022-08-01T03:47:46.171Z,94359.94
2022-08-01T03:50:17.671Z,94361.97
2022-08-01T03:52:48.745Z,94356.56
2022-08-01T03:55:18.423Z,94356.31
2022-08-01T03:57:49.236Z,94358.19
2022-08-01T04:00:19.454Z,94356.56
2022-08-01T04:02:49.759Z,94359.63
2022-08-01T04:05:18.461Z,94359.09
2022-08-01T04:07:48.927Z,94361.41
2022-08-01T04:10:16.984Z,94358.41
2022-08-01T04:12:45.066Z,94365.84
2022-08-01T04:15:13.294Z,94352.88
2022-08-01T04:17:41.320Z,94358.94
2022-08-01T04:20:12.632Z,94358.72
2022-08-01T04:22:41.413Z,94361.13
2022-08-01T04:25:17.463Z,94364.56
2022-08-01T04:27:51.233Z,94362.91
2022-08-01T04:30:22.767Z,94366.91
2022-08-01T04:32:52.663Z,94362.25
2022-08-01T04:36:01.737Z,94371.22
2022-08-01T04:38:15.254Z,94367.00
2022-08-01T04:40:43.579Z,94363.88
2022-08-01T04:43:12.433Z,94366.69
2022-08-01T04:45:44.506Z,94364.66
2022-08-01T04:48:14.711Z,94368.59
2022-08-01T04:50:44.635Z,94363.63
2022-08-01T04:53:17.806Z,94369.16
2022-08-01T04:55:47.715Z,94369.91
2022-08-01T04:58:18.627Z,94379.31
2022-08-01T05:00:47.689Z,94384.06
2022-08-01T05:03:16.179Z,94381.34
2022-08-01T05:05:45.555Z,94374.25
2022-08-01T05:08:13.554Z,94368.69
2022-08-01T05:10:41.570Z,94371.38
2022-08-01T05:13:09.929Z,94371.84
2022-08-01T05:15:38.713Z,94378.56
2022-08-01T05:18:08.565Z,94373.78
2022-08-01T05:20:36.835Z,94385.13
2022-08-01T05:23:06.538Z,94369.91
2022-08-01T05:25:56.186Z,94378.50
2022-08-01T05:28:26.204Z,94383.59
2022-08-01T05:30:55.850Z,94370.78
2022-08-01T05:33:24.177Z,94382.25
2022-08-01T05:35:52.325Z,94388.31
2022-08-01T05:38:21.760Z,94380.22
2022-08-01T05:40:49.920Z,94389.25
2022-08-01T05:43:18.208Z,94383.06
2022-08-01T05:45:47.089Z,94382.34
2022-08-01T05:48:15.353Z,94378.44
2022-08-01T05:50:43.452Z,94380.16
2022-08-01T05:53:11.523Z,94388.41
2022-08-01T05:55:41.146Z,94389.44
2022-08-01T05:58:09.193Z,94408.41
2022-08-01T06:00:40.692Z,94391.78
2022-08-01T06:03:09.030Z,94398.34
2022-08-01T06:05:37.057Z,94387.47
2022-08-01T06:08:05.541Z,94389.81
2022-08-01T06:10:33.897Z,94384.09
2022-08-01T06:13:04.256Z,94398.16
2022-08-01T06:15:32.313Z,94399.16
2022-08-01T06:18:00.758Z,94400.94
2022-08-01T06:20:28.835Z,94405.31
2022-08-01T06:22:56.876Z,94405.88
2022-08-01T06:25:28.049Z,94413.94
2022-08-01T06:27:56.050Z,94413.38
2022-08-01T06:30:25.872Z,94388.00
2022-08-01T06:32:54.077Z,94396.91
2022-08-01T06:35:22.214Z,94410.25
2022-08-01T06:37:50.268Z,94401.78
2022-08-01T06:40:18.953Z,94413.47
2022-08-01T06:42:47.693Z,94377.09
2022-08-01T06:45:16.662Z,94388.44
2022-08-01T06:47:50.779Z,94386.06
2022-08-01T06:50:22.023Z,94395.88
2022-08-01T06:52:50.000Z,94386.84
2022-08-01T06:55:17.972Z,94387.97
2022-08-01T06:57:50.188Z,94380.59
2022-08-01T07:00:23.318Z,94389.88
2022-08-01T07:02:53.555Z,94380.38
2022-08-01T07:05:22.132Z,94373.91
2022-08-01T07:07:50.221Z,94366.88
2022-08-01T07:10:19.378Z,94355.03
2022-08-01T07:12:47.415Z,94372.91
2022-08-01T07:15:16.622Z,94383.56
2022-08-01T07:17:45.472Z,94386.69
2022-08-01T07:20:16.408Z,94382.03
2022-08-01T07:22:45.402Z,94399.56
2022-08-01T07:25:16.251Z,94371.47
2022-08-01T07:27:44.505Z,94385.16
2022-08-01T07:30:13.105Z,94374.91
2022-08-01T07:32:42.456Z,94356.28
2022-08-01T07:35:11.246Z,94377.25
2022-08-01T07:37:48.014Z,94372.06
2022-08-01T07:40:18.920Z,94371.50
2022-08-01T07:42:47.456Z,94375.72
2022-08-01T07:45:16.532Z,94383.78
2022-08-01T07:47:44.997Z,94401.38
2022-08-01T07:50:14.156Z,94394.41
2022-08-01T07:52:44.296Z,94389.09
2022-08-01T07:55:16.538Z,94385.28
2022-08-01T07:57:44.948Z,94370.63
2022-08-01T08:00:14.231Z,94382.06
2022-08-01T08:02:42.655Z,94390.84
2022-08-01T08:05:11.751Z,94396.84
2022-08-01T08:07:40.526Z,94413.75
2022-08-01T08:10:10.882Z,94397.31
2022-08-01T08:12:39.071Z,94395.88
2022-08-01T08:15:07.873Z,94397.53
2022-08-01T08:17:36.846Z,94386.75
2022-08-01T08:20:09.030Z,94376.69
2022-08-01T08:22:38.619Z,94382.03
2022-08-01T08:25:09.383Z,94384.69
2022-08-01T08:27:37.973Z,94373.63
2022-08-01T08:30:08.798Z,94404.91
2022-08-01T08:32:37.662Z,94372.09
2022-08-01T08:35:07.417Z,94379.38
2022-08-01T08:37:39.058Z,94365.06
2022-08-01T08:40:13.278Z,94363.22
2022-08-01T08:42:42.877Z,94359.09
2022-08-01T08:45:12.586Z,94366.25
2022-08-01T08:47:44.087Z,94382.19
2022-08-01T08:50:12.973Z,94367.66
2022-08-01T08:52:42.312Z,94367.66
2022-08-01T08:55:15.596Z,94365.59
2022-08-01T08:57:45.782Z,94358.81
2022-08-01T09:00:17.223Z,94356.88
2022-08-01T09:02:47.529Z,94361.16
2022-08-01T09:05:19.424Z,94355.25
2022-08-01T09:07:48.089Z,94350.72
2022-08-01T09:10:17.487Z,94372.75
2022-08-01T09:13:07.802Z,94371.47
2022-08-01T09:15:47.009Z,94364.38
2022-08-01T09:18:34.865Z,94362.97
2022-08-01T09:21:11.856Z,94376.75
2022-08-01T09:23:54.360Z,94353.63
2022-08-01T09:26:32.479Z,94363.34
2022-08-01T09:29:05.622Z,94366.16
2022-08-01T09:31:42.299Z,94343.63
2022-08-01T09:34:19.743Z,94345.03
2022-08-01T09:36:54.259Z,94339.88
2022-08-01T09:39:24.092Z,94349.28
2022-08-01T09:41:55.003Z,94347.44
2022-08-01T09:44:42.438Z,94352.25
2022-08-01T09:47:15.408Z,94355.66
2022-08-01T09:49:51.821Z,94362.03
2022-08-01T09:52:26.066Z,94385.78
2022-08-01T09:54:58.468Z,94338.59
2022-08-01T09:57:28.925Z,94334.91
2022-08-01T10:00:00.405Z,94346.81
2022-08-01T10:02:31.700Z,94349.78
2022-08-01T10:05:03.801Z,94343.41
2022-08-01T10:07:42.764Z,94371.03
2022-08-01T10:10:14.455Z,94359.34
2022-08-01T10:12:45.925Z,94329.38
2022-08-01T10:15:18.495Z,94334.75
2022-08-01T10:17:57.115Z,94336.34
2022-08-01T10:20:30.191Z,94335.56
2022-08-01T10:23:02.127Z,94333.47
2022-08-01T10:25:42.469Z,94345.06
2022-08-01T10:28:17.840Z,94332.69
2022-08-01T10:30:50.233Z,94325.19
2022-08-01T10:33:50.531Z,94327.03
2022-08-01T10:36:08.564Z,94313.28
2022-08-01T10:38:37.524Z,94304.81
2022-08-01T10:41:08.677Z,94315.44
2022-08-01T10:43:38.777Z,94297.34
2022-08-01T10:46:07.324Z,94316.22
2022-08-01T10:48:45.489Z,94313.31
2022-08-01T10:51:18.461Z,94317.84
2022-08-01T10:53:54.373Z,94321.56
2022-08-01T10:56:26.888Z,94309.00
2022-08-01T10:59:06.126Z,94290.31
2022-08-01T11:01:37.363Z,94315.25
2022-08-01T11:04:13.924Z,94309.97
2022-08-01T11:07:13.088Z,94317.13
2022-08-01T11:09:47.061Z,94307.00
2022-08-01T11:12:24.626Z,94322.97
2022-08-01T11:15:32.211Z,94298.75
2022-08-01T11:18:02.546Z,94294.59
2022-08-01T11:20:34.171Z,94310.06
2022-08-01T11:23:18.235Z,94309.09
2022-08-01T11:26:13.007Z,94300.97
2022-08-01T11:28:59.439Z,94298.47
2022-08-01T11:31:37.283Z,94289.03
2022-08-01T11:34:06.019Z,94275.19
2022-08-01T11:36:57.770Z,94285.78
2022-08-01T11:39:22.240Z,94282.13
2022-08-01T11:41:50.805Z,94279.38
2022-08-01T11:44:26.662Z,94284.25
2022-08-01T11:47:01.470Z,94284.91
2022-08-01T11:49:58.871Z,94290.13
2022-08-01T11:52:28.946Z,94286.94
2022-08-01T11:54:58.504Z,94291.56
2022-08-01T11:57:34.060Z,94286.69
2022-08-01T12:00:08.585Z,94306.66
2022-08-01T12:02:38.532Z,94303.66
2022-08-01T12:05:11.956Z,94281.59
2022-08-01T12:07:43.062Z,94280.13
2022-08-01T12:10:13.220Z,94269.88
2022-08-01T12:12:47.511Z,94275.78
2022-08-01T12:15:15.746Z,94273.94
2022-08-01T12:17:59.141Z,94268.78
2022-08-01T12:20:31.612Z,94273.22
2022-08-01T12:23:01.997Z,94286.63
2022-08-01T12:25:30.383Z,94280.56
2022-08-01T12:28:03.538Z,94294.94
2022-08-01T12:30:36.132Z,94286.56
2022-08-01T12:33:06.887Z,94274.94
2022-08-01T12:35:35.643Z,94265.28
2022-08-01T12:38:05.804Z,94293.44
2022-08-01T12:40:36.018Z,94268.59
2022-08-01T12:43:05.721Z,94291.56
2022-08-01T12:45:40.611Z,94283.47
2022-08-01T12:48:23.836Z,94276.25
2022-08-01T12:50:53.653Z,94277.56
2022-08-01T12:53:22.651Z,94277.25
2022-08-01T12:55:59.376Z,94271.56
2022-08-01T12:58:33.888Z,94271.13
2022-08-01T13:01:06.673Z,94267.84
2022-08-01T13:03:36.392Z,94269.81
2022-08-01T13:06:13.487Z,94257.91
2022-08-01T13:08:41.705Z,94260.16
2022-08-01T13:11:11.172Z,94258.94
2022-08-01T13:13:44.280Z,94257.84
2022-08-01T13:16:16.249Z,94257.59
2022-08-01T13:18:57.366Z,94266.56
2022-08-01T13:21:26.938Z,94269.97
2022-08-01T13:24:08.336Z,94249.84
2022-08-01T13:26:43.913Z,94258.31
2022-08-01T13:29:14.266Z,94253.91
2022-08-01T13:31:48.080Z,94249.50
2022-08-01T13:34:18.649Z,94244.34
2022-08-01T13:36:49.632Z,94237.03
2022-08-01T13:39:35.464Z,94240.47
2022-08-01T13:42:03.815Z,94239.22
2022-08-01T13:44:32.273Z,94238.44
2022-08-01T13:47:00.754Z,94254.28
2022-08-01T13:49:36.406Z,94235.22
2022-08-01T13:52:08.408Z,94233.34
2022-08-01T13:54:37.324Z,94247.75
2022-08-01T13:57:06.156Z,94244.19
2022-08-01T13:59:34.189Z,94244.06
2022-08-01T14:02:02.216Z,94241.94
2022-08-01T14:04:31.531Z,94241.59
2022-08-01T14:07:02.923Z,94248.25
2022-08-01T14:09:34.390Z,94239.50
2022-08-01T14:12:02.435Z,94246.81
2022-08-01T14:14:31.296Z,94221.91
2022-08-01T14:16:59.418Z,94238.41
2022-08-01T14:19:38.777Z,94237.66
2022-08-01T14:22:09.368Z,94231.59
2022-08-01T14:24:38.908Z,94230.28
2022-08-01T14:27:07.126Z,94256.47
2022-08-01T14:30:01.157Z,94246.97
2022-08-01T14:32:25.944Z,94238.19
2022-08-01T14:34:57.112Z,94239.19
2022-08-01T14:37:28.869Z,94242.38
2022-08-01T14:39:58.975Z,94232.84
2022-08-01T14:42:27.600Z,94242.31
2022-08-01T14:44:55.581Z,94258.19
2022-08-01T14:47:24.458Z,94235.03
2022-08-01T14:49:52.976Z,94247.28
2022-08-01T14:52:22.469Z,94227.78
2022-08-01T14:54:51.859Z,94234.50
2022-08-01T14:57:20.231Z,94249.72
2022-08-01T14:59:49.934Z,94263.34
2022-08-01T15:02:18.377Z,94240.75
2022-08-01T15:04:47.022Z,94258.63
2022-08-01T15:07:15.978Z,94235.56
2022-08-01T15:09:44.809Z,94252.31
2022-08-01T15:12:14.321Z,94243.97
2022-08-01T15:14:52.059Z,94247.25
2022-08-01T15:17:22.519Z,94242.81
2022-08-01T15:19:53.933Z,94241.50
2022-08-01T15:22:23.360Z,94243.88
2022-08-01T15:24:57.114Z,94241.72
2022-08-01T15:27:27.788Z,94253.19
2022-08-01T15:29:58.282Z,94241.72
2022-08-01T15:32:26.496Z,94241.03
2022-08-01T15:34:55.248Z,94248.19
2022-08-01T15:37:23.214Z,94240.56
2022-08-01T15:39:54.713Z,94250.75
2022-08-01T15:42:27.266Z,94247.31
2022-08-01T15:44:55.506Z,94246.09
2022-08-01T15:47:24.926Z,94234.09
2022-08-01T15:49:53.384Z,94247.09
2022-08-01T15:52:23.040Z,94235.63
2022-08-01T15:54:51.422Z,94228.69
2022-08-01T15:57:19.903Z,94239.19
2022-08-01T15:59:49.313Z,94238.19
2022-08-01T16:02:17.431Z,94257.22
2022-08-01T16:04:45.584Z,94246.22
2022-08-01T16:07:13.565Z,94241.31
2022-08-01T16:09:41.626Z,94236.41
2022-08-01T16:12:11.095Z,94245.09
2022-08-01T16:14:39.053Z,94251.44
2022-08-01T16:17:08.491Z,94247.06
2022-08-01T16:19:36.517Z,94252.75
2022-08-01T16:22:04.997Z,94249.66
2022-08-01T16:24:33.473Z,94244.63
2022-08-01T16:27:01.508Z,94244.69
2022-08-01T16:29:31.704Z,94240.72
2022-08-01T16:32:15.798Z,94250.78
2022-08-01T16:34:50.214Z,94247.41
2022-08-01T16:37:18.315Z,94248.66
2022-08-01T16:39:47.658Z,94242.25
2022-08-01T16:42:16.077Z,94255.34
2022-08-01T16:44:45.101Z,94254.78
2022-08-01T16:49:59.543Z,94260.16
2022-08-01T16:52:28.533Z,94261.00
2022-08-01T16:54:59.120Z,94254.66
2022-08-01T16:57:27.219Z,94266.19
2022-08-01T16:59:55.465Z,94265.63
2022-08-01T17:02:24.874Z,94268.13
2022-08-01T17:05:07.045Z,94269.25
2022-08-01T17:07:38.272Z,94278.81
2022-08-01T17:10:07.824Z,94271.72
2022-08-01T17:12:36.575Z,94261.56
2022-08-01T17:15:05.502Z,94269.06
2022-08-01T17:17:33.583Z,94269.28
2022-08-01T17:20:01.673Z,94281.22
2022-08-01T17:22:29.763Z,94284.38
2022-08-01T17:24:59.212Z,94282.25
2022-08-01T17:27:29.980Z,94279.63
2022-08-01T17:29:57.979Z,94281.72
2022-08-01T17:32:25.994Z,94279.38
2022-08-01T17:34:54.035Z,94281.81
2022-08-01T17:37:22.064Z,94286.84
2022-08-01T17:39:50.101Z,94295.94
2022-08-01T17:42:19.522Z,94301.31
2022-08-01T17:44:49.088Z,94297.91
2022-08-01T17:47:48.041Z,94300.03
2022-08-01T17:50:14.238Z,94308.50
2022-08-01T17:52:42.258Z,94310.38
2022-08-01T17:55:54.465Z,94314.38
2022-08-01T17:58:00.398Z,94319.69
2022-08-01T18:00:28.585Z,94325.00
2022-08-01T18:02:56.533Z,94314.91
2022-08-01T18:05:36.861Z,94325.00
2022-08-01T18:08:06.681Z,94335.91
2022-08-01T18:10:34.996Z,94339.88
2022-08-01T18:13:09.672Z,94334.28
2022-08-01T18:15:38.732Z,94345.19
2022-08-01T18:18:07.112Z,94342.53
2022-08-01T18:20:35.334Z,94347.84
2022-08-01T18:23:08.881Z,94343.88
2022-08-01T18:25:37.471Z,94342.78
2022-08-01T18:28:29.390Z,94362.97
2022-08-01T18:30:55.317Z,94369.34
2022-08-01T18:33:23.564Z,94376.50
2022-08-01T18:35:53.984Z,94385.00
2022-08-01T18:38:24.192Z,94382.09
2022-08-01T18:40:52.816Z,94383.03
2022-08-01T18:43:20.854Z,94388.00
2022-08-01T18:45:48.905Z,94389.31
2022-08-01T18:48:18.327Z,94394.88
2022-08-01T18:50:47.586Z,94397.50
2022-08-01T18:53:15.607Z,94392.22
2022-08-01T18:55:43.918Z,94402.72
2022-08-01T18:58:11.927Z,94408.78
2022-08-01T19:00:40.551Z,94414.34
2022-08-01T19:03:08.875Z,94418.28
2022-08-01T19:05:38.347Z,94415.56
2022-08-01T19:08:08.221Z,94418.28
2022-08-01T19:10:36.753Z,94409.69
2022-08-01T19:13:06.145Z,94428.00
2022-08-01T19:15:34.209Z,94418.44
2022-08-01T19:18:03.153Z,94422.41
2022-08-01T19:20:31.889Z,94428.44
2022-08-01T19:23:21.331Z,94438.44
2022-08-01T19:25:55.703Z,94437.16
2022-08-01T19:28:26.040Z,94438.13
2022-08-01T19:30:55.433Z,94439.91
2022-08-01T19:33:23.657Z,94443.00
2022-08-01T19:35:53.986Z,94442.59
2022-08-01T19:38:23.861Z,94438.78
2022-08-01T19:40:52.263Z,94450.66
2022-08-01T19:43:22.682Z,94438.31
2022-08-01T19:45:51.511Z,94440.44
2022-08-01T19:48:20.148Z,94451.03
2022-08-01T19:50:50.592Z,94450.16
2022-08-01T19:53:24.086Z,94449.59
2022-08-01T19:55:54.324Z,94448.25
2022-08-01T19:58:27.284Z,94453.53
2022-08-01T20:00:56.804Z,94443.09
2022-08-01T20:03:24.953Z,94447.03
2022-08-01T20:05:53.250Z,94442.34
2022-08-01T20:08:22.061Z,94443.22
2022-08-01T20:10:50.092Z,94443.59
2022-08-01T20:13:20.291Z,94447.22
2022-08-01T20:15:48.711Z,94449.69
2022-08-01T20:18:16.649Z,94451.06
2022-08-01T20:20:46.306Z,94456.50
2022-08-01T20:23:18.739Z,94454.59
2022-08-01T20:25:49.457Z,94455.81
2022-08-01T20:28:22.964Z,94461.97
2022-08-01T20:30:55.236Z,94461.81
2022-08-01T20:33:23.396Z,94457.81
2022-08-01T20:35:54.043Z,94450.25
2022-08-01T20:38:24.135Z,94450.25
2022-08-01T20:40:53.902Z,94453.16
2022-08-01T20:43:24.236Z,94455.34
2022-08-01T20:45:52.510Z,94452.28
2022-08-01T20:48:21.344Z,94459.22
2022-08-01T20:51:10.560Z,94458.06
2022-08-01T20:53:42.014Z,94452.13
2022-08-01T20:56:15.916Z,94451.56
2022-08-01T20:59:39.887Z,94451.56
2022-08-01T21:02:09.707Z,94454.53
2022-08-01T21:04:53.653Z,94462.06
2022-08-01T21:07:26.854Z,94451.50
2022-08-01T21:10:00.152Z,94449.94
2022-08-01T21:12:33.511Z,94451.53
2022-08-01T21:15:03.140Z,94450.34
2022-08-01T21:17:42.299Z,94452.50
2022-08-01T21:20:13.596Z,94449.44
2022-08-01T21:22:53.256Z,94452.50
2022-08-01T21:25:31.436Z,94450.53
2022-08-01T21:28:01.274Z,94446.97
2022-08-01T21:30:31.809Z,94444.25
2022-08-01T21:33:00.567Z,94446.13
2022-08-01T21:35:28.687Z,94439.22
2022-08-01T21:38:00.087Z,94438.91
2022-08-01T21:40:28.127Z,94449.38
2022-08-01T21:42:56.347Z,94442.81
2022-08-01T21:45:25.880Z,94436.34
2022-08-01T21:47:56.665Z,94436.00
2022-08-01T21:50:25.062Z,94444.59
2022-08-01T21:53:05.708Z,94442.91
2022-08-01T21:55:38.665Z,94439.41
2022-08-01T21:58:33.241Z,94441.09
2022-08-01T22:01:08.214Z,94430.06
2022-08-01T22:03:46.568Z,94435.50
2022-08-01T22:06:16.002Z,94439.16
2022-08-01T22:08:50.685Z,94435.94
2022-08-01T22:11:22.484Z,94432.13
2022-08-01T22:13:55.216Z,94428.59
2022-08-01T22:16:24.393Z,94413.94
2022-08-01T22:18:54.518Z,94423.53
2022-08-01T22:21:22.801Z,94428.91
2022-08-01T22:23:52.848Z,94424.91
2022-08-01T22:26:27.097Z,94422.81
2022-08-01T22:28:57.176Z,94418.81
2022-08-01T22:31:25.533Z,94424.69
2022-08-01T22:33:55.493Z,94424.75
2022-08-01T22:36:24.043Z,94428.91
2022-08-01T22:38:52.128Z,94417.72
2022-08-01T22:41:24.082Z,94417.63
2022-08-01T22:43:58.651Z,94423.50
2022-08-01T22:46:32.929Z,94423.91
2022-08-01T22:49:09.785Z,94407.56
2022-08-01T22:51:55.347Z,94413.25
2022-08-01T22:54:31.040Z,94418.09
2022-08-01T22:57:04.715Z,94418.56
2022-08-01T22:59:47.460Z,94415.69
2022-08-01T23:02:17.791Z,94408.50
2022-08-01T23:04:49.928Z,94401.47
2022-08-01T23:07:21.969Z,94409.63
2022-08-01T23:09:53.838Z,94407.00
2022-08-01T23:12:25.322Z,94399.53
2022-08-01T23:14:55.122Z,94402.66
2022-08-01T23:17:27.040Z,94408.47
2022-08-01T23:19:59.514Z,94406.56
2022-08-01T23:22:31.901Z,94407.44
2022-08-01T23:25:05.199Z,94402.50
2022-08-01T23:27:54.229Z,94403.31
2022-08-01T23:30:26.880Z,94407.00
2022-08-01T23:32:55.297Z,94395.88
2022-08-01T23:35:25.307Z,94398.66
2022-08-01T23:37:53.575Z,94401.84
2022-08-01T23:40:25.099Z,94399.34
2022-08-01T23:42:54.748Z,94397.72
2022-08-01T23:45:23.288Z,94395.63
2022-08-01T23:47:51.785Z,94388.09
2022-08-01T23:50:21.838Z,94387.16
2022-08-01T23:52:52.592Z,94390.56
2022-08-01T23:55:29.812Z,94394.38
2022-08-01T23:58:06.620Z,94391.72
